Time;durP1;ratioP1;P1;durP2;ratioP2;P2;SDS_P1;SDS_P2;PMS_P1;PMS_P2;Temp;Humidity;BMP_temperature;BMP_pressure;BME280_temperature;BME280_humidity;BME280_pressure;Samples;Min_cycle;Max_cycle;Signal;HPM_P1;HPM_P2
2023/04/27 00:02:22;;;;;;;8.05;3.95;;;;;;;16.31;76.95;96335.78;4953872;28;20086;-58
2023/04/27 00:04:51;;;;;;;6.82;4.20;;;;;;;16.52;76.46;96337.69;4945059;28;20079;-58
2023/04/27 00:07:20;;;;;;;6.80;4.10;;;;;;;16.33;77.94;96338.25;4950509;28;20087;-56
2023/04/27 00:09:50;;;;;;;9.75;4.50;;;;;;;16.42;78.58;96336.34;4949083;28;20483;-57
2023/04/27 00:12:19;;;;;;;5.43;3.95;;;;;;;16.08;84.21;96337.69;4951094;28;20079;-57
2023/04/27 00:14:47;;;;;;;10.40;4.20;;;;;;;15.89;88.75;96347.00;4947465;28;20097;-57
2023/04/27 00:17:17;;;;;;;6.95;3.80;;;;;;;16.11;86.16;96346.13;4950417;28;20141;-56
2023/04/27 00:19:46;;;;;;;6.53;3.93;;;;;;;15.78;88.86;96345.59;4951419;28;20074;-60
2023/04/27 00:22:14;;;;;;;10.95;4.07;;;;;;;16.00;87.20;96346.59;4946322;28;20717;-61
2023/04/27 00:24:43;;;;;;;7.72;4.13;;;;;;;16.14;84.64;96347.63;4948361;28;20074;-61
2023/04/27 00:27:12;;;;;;;10.60;4.22;;;;;;;16.30;80.38;96336.78;4946597;28;20554;-60
2023/04/27 00:29:41;;;;;;;9.35;4.38;;;;;;;16.35;79.38;96334.41;4947873;28;20054;-60
2023/04/27 00:32:10;;;;;;;7.15;4.18;;;;;;;16.30;84.31;96341.28;4953134;28;20077;-59
2023/04/27 00:34:40;;;;;;;6.72;3.92;;;;;;;16.04;83.36;96341.72;4957921;28;20095;-59
2023/04/27 00:37:08;;;;;;;8.23;4.47;;;;;;;16.33;80.49;96339.06;4948448;28;20083;-62
2023/04/27 00:39:37;;;;;;;8.30;4.07;;;;;;;16.23;81.11;96338.50;4944377;28;20083;-61
2023/04/27 00:42:10;;;;;;;8.77;4.28;;;;;;;16.28;81.19;96338.81;4946430;28;20492;-59
2023/04/27 00:44:38;;;;;;;7.50;3.78;;;;;;;16.24;85.14;96339.34;4954538;28;20047;-57
2023/04/27 00:47:07;;;;;;;7.85;3.80;;;;;;;16.01;86.25;96347.41;4943796;28;21069;-61
2023/04/27 00:49:36;;;;;;;7.25;3.80;;;;;;;16.24;85.36;96340.19;4952251;28;20066;-59
2023/04/27 00:52:06;;;;;;;6.13;4.18;;;;;;;16.08;84.99;96340.34;4951366;28;20082;-57
2023/04/27 00:54:35;;;;;;;6.75;4.35;;;;;;;16.27;83.33;96342.47;4953057;28;20078;-56
2023/04/27 00:57:03;;;;;;;7.35;4.57;;;;;;;16.09;86.52;96336.69;4946965;28;20086;-58
2023/04/27 00:59:32;;;;;;;7.80;4.18;;;;;;;16.29;84.24;96335.13;4943902;28;20094;-60
2023/04/27 01:02:00;;;;;;;9.27;4.15;;;;;;;16.11;88.33;96338.16;4941958;28;20519;-62
2023/04/27 01:04:30;;;;;;;7.50;4.30;;;;;;;16.05;88.80;96346.03;4950016;28;20091;-59
2023/04/27 01:07:01;;;;;;;9.65;4.95;;;;;;;16.11;89.15;96342.66;4944310;28;20063;-60
2023/04/27 01:09:31;;;;;;;8.48;5.25;;;;;;;16.29;87.84;96331.66;4953587;28;20086;-61
2023/04/27 01:12:00;;;;;;;9.75;4.65;;;;;;;16.31;85.98;96340.25;4952285;28;20082;-56
2023/04/27 01:14:28;;;;;;;11.40;4.93;;;;;;;16.25;86.93;96335.69;4952083;28;20082;-60
2023/04/27 01:16:57;;;;;;;8.68;4.60;;;;;;;16.08;85.24;96343.00;4945734;28;20090;-60
2023/04/27 01:19:25;;;;;;;8.40;4.70;;;;;;;16.17;84.88;96338.41;4949061;28;20112;-60
2023/04/27 01:21:53;;;;;;;13.27;6.93;;;;;;;15.85;89.43;96346.53;4947775;28;20082;-58
2023/04/27 01:24:23;;;;;;;18.08;11.43;;;;;;;15.90;89.30;96336.19;4944891;28;20082;-59
2023/04/27 01:26:52;;;;;;;16.60;9.77;;;;;;;15.82;93.29;96338.91;4947676;28;20785;-59
2023/04/27 01:29:21;;;;;;;14.10;8.65;;;;;;;15.91;91.68;96339.69;4944609;28;20094;-56
2023/04/27 01:31:49;;;;;;;13.20;7.00;;;;;;;15.95;89.90;96338.31;4954521;28;20102;-57
2023/04/27 01:34:17;;;;;;;14.20;7.00;;;;;;;15.94;91.04;96334.00;4952427;28;20101;-59
2023/04/27 01:36:46;;;;;;;9.15;5.75;;;;;;;15.88;90.92;96338.19;4951847;28;20091;-61
2023/04/27 01:39:15;;;;;;;11.52;5.88;;;;;;;15.77;93.02;96338.66;4948982;28;20093;-57
2023/04/27 01:41:44;;;;;;;14.18;6.88;;;;;;;15.98;89.54;96339.78;4948893;28;20087;-61
2023/04/27 01:44:13;;;;;;;9.43;5.93;;;;;;;15.79;88.09;96346.44;4952759;28;20094;-61
2023/04/27 01:46:41;;;;;;;13.98;6.45;;;;;;;15.85;85.59;96343.88;4954461;28;20488;-60
2023/04/27 01:49:10;;;;;;;9.55;6.25;;;;;;;15.68;88.65;96347.69;4954104;28;20091;-60
2023/04/27 01:51:38;;;;;;;10.25;6.47;;;;;;;15.83;88.25;96348.56;4954851;28;20091;-60
2023/04/27 01:54:06;;;;;;;11.85;5.43;;;;;;;15.62;89.94;96343.06;4951588;28;20546;-60
2023/04/27 01:56:34;;;;;;;9.30;5.97;;;;;;;15.71;92.00;96347.34;4951215;28;20766;-57
2023/04/27 01:59:04;;;;;;;13.75;5.57;;;;;;;15.81;90.85;96350.56;4956105;28;20110;-59
2023/04/27 02:01:32;;;;;;;8.63;5.78;;;;;;;15.76;92.15;96346.78;4948739;28;20093;-57
2023/04/27 02:04:01;;;;;;;8.45;6.00;;;;;;;15.83;90.95;96350.41;4951449;28;20078;-62
2023/04/27 02:06:30;;;;;;;11.68;5.93;;;;;;;15.80;91.84;96350.75;4949491;28;20551;-60
2023/04/27 02:08:58;;;;;;;10.27;5.75;;;;;;;15.83;91.72;96350.41;4952977;28;20539;-60
2023/04/27 02:11:26;;;;;;;8.07;5.47;;;;;;;15.87;90.99;96349.84;4949238;28;20075;-60
2023/04/27 02:13:54;;;;;;;8.30;5.80;;;;;;;15.86;90.88;96356.19;4952000;28;20448;-60
2023/04/27 02:16:24;;;;;;;7.85;5.72;;;;;;;15.71;91.62;96349.16;4953694;28;20097;-59
2023/04/27 02:18:53;;;;;;;13.43;5.97;;;;;;;15.34;92.74;96356.88;4948072;28;20579;-59
2023/04/27 02:21:21;;;;;;;16.45;6.22;;;;;;;14.87;100.00;96357.03;4950087;28;20570;-60
2023/04/27 02:23:50;;;;;;;11.45;6.45;;;;;;;15.62;93.81;96353.69;4945535;28;20097;-60
2023/04/27 02:26:19;;;;;;;13.63;6.20;;;;;;;15.64;93.45;96349.84;4957037;28;20535;-59
2023/04/27 02:28:48;;;;;;;9.55;5.72;;;;;;;15.54;99.55;96357.25;4948508;28;20068;-58
2023/04/27 02:31:17;;;;;;;10.73;6.18;;;;;;;15.47;94.15;96355.47;4947289;28;20074;-61
2023/04/27 02:33:47;;;;;;;10.60;6.45;;;;;;;15.82;88.56;96354.06;4948394;28;20074;-60
2023/04/27 02:36:15;;;;;;;9.70;5.88;;;;;;;15.44;94.55;96361.97;4934726;29;20077;-61
2023/04/27 02:38:43;;;;;;;8.15;5.65;;;;;;;15.73;91.58;96363.94;4953519;28;20470;-59
2023/04/27 02:41:12;;;;;;;12.23;5.72;;;;;;;15.81;88.37;96361.19;4947244;28;20090;-60
2023/04/27 02:43:40;;;;;;;8.32;5.32;;;;;;;15.81;88.63;96363.88;4946704;28;20090;-60
2023/04/27 02:46:08;;;;;;;9.10;4.95;;;;;;;15.66;94.55;96355.84;4954095;28;20102;-56
2023/04/27 02:48:36;;;;;;;8.77;4.68;;;;;;;15.60;94.60;96355.72;4952974;28;20090;-58
2023/04/27 02:51:06;;;;;;;12.20;4.93;;;;;;;15.48;96.43;96360.59;4951516;28;20085;-56
2023/04/27 02:53:35;;;;;;;6.65;4.45;;;;;;;15.30;98.25;96365.38;4952980;28;20083;-58
2023/04/27 02:56:03;;;;;;;8.27;5.38;;;;;;;15.27;96.75;96350.63;4953613;28;20090;-60
2023/04/27 02:58:32;;;;;;;8.65;5.68;;;;;;;15.19;95.63;96358.66;4956475;28;20090;-58
2023/04/27 03:01:00;;;;;;;11.18;6.28;;;;;;;15.07;96.66;96360.03;4946954;28;20087;-60
2023/04/27 03:03:28;;;;;;;12.65;6.75;;;;;;;15.05;94.87;96357.56;4953130;28;20102;-57
2023/04/27 03:05:57;;;;;;;12.52;5.40;;;;;;;15.08;93.85;96364.38;4946841;28;20532;-60
2023/04/27 03:08:27;;;;;;;12.40;6.53;;;;;;;14.98;93.67;96359.28;4949286;28;20074;-60
2023/04/27 03:10:55;;;;;;;11.10;5.85;;;;;;;14.81;97.41;96355.88;4952716;28;20122;-59
2023/04/27 03:13:23;;;;;;;8.38;5.47;;;;;;;14.58;100.00;96358.47;4953440;28;20093;-59
2023/04/27 03:15:51;;;;;;;12.18;6.35;;;;;;;14.48;100.00;96357.81;4951518;28;20082;-58
2023/04/27 03:18:20;;;;;;;7.68;5.43;;;;;;;14.65;97.57;96355.94;4949183;28;20082;-60
2023/04/27 03:20:48;;;;;;;9.68;5.78;;;;;;;14.65;97.36;96359.41;4951796;28;20086;-59
2023/04/27 03:23:16;;;;;;;13.70;5.95;;;;;;;14.42;100.00;96371.78;4954767;28;20075;-59
2023/04/27 03:25:47;;;;;;;10.10;5.97;;;;;;;14.08;100.00;96367.53;4947602;28;20078;-60
2023/04/27 03:28:15;;;;;;;10.88;5.82;;;;;;;14.13;100.00;96372.34;4951033;28;20086;-58
2023/04/27 03:30:44;;;;;;;9.38;6.03;;;;;;;14.24;100.00;96378.09;4946456;28;20106;-58
2023/04/27 03:33:13;;;;;;;9.27;5.55;;;;;;;14.19;100.00;96375.13;4949925;28;20128;-59
2023/04/27 03:35:41;;;;;;;8.20;5.70;;;;;;;14.10;100.00;96375.31;4949968;28;20093;-61
2023/04/27 03:38:09;;;;;;;11.50;6.13;;;;;;;14.08;100.00;96382.63;4954354;28;20089;-59
2023/04/27 03:40:38;;;;;;;12.02;5.90;;;;;;;14.01;100.00;96377.16;4959606;28;20094;-57
2023/04/27 03:43:07;;;;;;;12.25;6.20;;;;;;;13.93;100.00;96377.97;4953400;28;20074;-58
2023/04/27 03:45:35;;;;;;;9.48;6.10;;;;;;;13.90;100.00;96378.34;4962308;28;20095;-56
2023/04/27 03:48:05;;;;;;;11.40;6.22;;;;;;;13.85;100.00;96385.94;4954048;28;20683;-58
2023/04/27 03:50:33;;;;;;;10.40;5.80;;;;;;;13.60;100.00;96386.97;4946372;28;20535;-59
2023/04/27 03:53:02;;;;;;;10.23;6.10;;;;;;;13.54;100.00;96386.63;4942964;28;20473;-59
2023/04/27 03:55:30;;;;;;;10.27;6.15;;;;;;;13.71;100.00;96387.44;4958149;28;20078;-59
2023/04/27 03:57:58;;;;;;;9.85;6.03;;;;;;;13.82;100.00;96393.41;4964685;28;20082;-61
2023/04/27 04:00:28;;;;;;;9.38;5.82;;;;;;;13.62;100.00;96399.03;4955414;28;20087;-58
2023/04/27 04:02:56;;;;;;;9.48;6.10;;;;;;;13.67;100.00;96398.56;4954036;28;20074;-60
2023/04/27 04:05:25;;;;;;;10.70;6.40;;;;;;;13.61;100.00;96407.16;4952675;28;20093;-59
2023/04/27 04:07:53;;;;;;;9.52;5.80;;;;;;;13.57;100.00;96406.66;4957432;28;20086;-56
2023/04/27 04:10:21;;;;;;;10.60;5.65;;;;;;;13.55;100.00;96413.94;4950208;28;20091;-59
2023/04/27 04:12:50;;;;;;;9.52;5.30;;;;;;;13.53;100.00;96416.75;4943835;28;20097;-56
2023/04/27 04:15:19;;;;;;;11.88;5.57;;;;;;;13.28;100.00;96423.00;4949075;28;20738;-55
2023/04/27 04:17:48;;;;;;;11.30;5.70;;;;;;;13.22;100.00;96416.50;4946345;28;20420;-59
2023/04/27 04:20:17;;;;;;;9.23;5.90;;;;;;;13.48;100.00;96416.41;4944909;28;20503;-59
2023/04/27 04:22:46;;;;;;;10.55;5.57;;;;;;;13.46;100.00;96422.88;4947344;28;20471;-60
2023/04/27 04:25:14;;;;;;;11.65;6.53;;;;;;;13.75;100.00;96412.63;4950318;28;20091;-58
2023/04/27 04:27:43;;;;;;;11.90;6.15;;;;;;;14.01;100.00;96417.75;4945869;28;20086;-60
2023/04/27 04:30:12;;;;;;;10.35;6.43;;;;;;;14.12;100.00;96418.41;4949363;28;20090;-57
2023/04/27 04:32:41;;;;;;;10.23;5.90;;;;;;;14.23;100.00;96428.66;4951557;28;20082;-59
2023/04/27 04:35:11;;;;;;;12.35;6.00;;;;;;;14.51;100.00;96425.66;4954506;28;20066;-61
2023/04/27 04:37:40;;;;;;;;;;;;;;;14.88;97.36;96422.38;4947286;28;20070;-61
2023/04/27 04:40:09;;;;;;;7.32;5.30;;;;;;;14.68;100.00;96433.41;4952969;28;19953;-58
2023/04/27 04:42:37;;;;;;;9.18;5.88;;;;;;;14.93;99.44;96428.00;4951853;28;20040;-61
2023/04/27 04:45:07;;;;;;;14.82;6.32;;;;;;;14.98;95.51;96432.81;4945942;28;20071;-57
2023/04/27 04:47:35;;;;;;;9.02;5.43;;;;;;;15.12;94.57;96435.56;4946977;28;20093;-55
2023/04/27 04:50:04;;;;;;;11.38;4.40;;;;;;;15.03;96.41;96427.78;4949561;28;20078;-58
2023/04/27 04:52:33;;;;;;;12.43;4.53;;;;;;;15.43;91.08;96429.41;4949850;28;20095;-58
2023/04/27 04:55:02;;;;;;;6.80;4.77;;;;;;;15.09;91.53;96427.09;4945388;28;20086;-62
2023/04/27 04:57:30;;;;;;;7.43;4.57;;;;;;;14.69;100.00;96432.44;4948245;28;20090;-61
2023/04/27 05:00:00;;;;;;;6.07;4.65;;;;;;;14.14;100.00;96440.28;4943560;28;20562;-59
2023/04/27 05:02:29;;;;;;;7.55;4.88;;;;;;;14.31;100.00;96436.59;4954125;28;20082;-58
2023/04/27 05:04:57;;;;;;;8.70;4.88;;;;;;;14.63;100.00;96434.94;4947802;28;20086;-58
2023/04/27 05:07:25;;;;;;;9.68;5.85;;;;;;;14.43;100.00;96442.41;4945720;28;20652;-58
2023/04/27 05:09:56;;;;;;;11.23;5.97;;;;;;;14.99;100.00;96445.09;4947120;28;20097;-58
2023/04/27 05:12:24;;;;;;;12.95;7.25;;;;;;;15.49;95.07;96441.19;4948579;28;20105;-58
2023/04/27 05:14:52;;;;;;;10.90;7.07;;;;;;;15.66;92.15;96438.28;4956276;28;20086;-59
2023/04/27 05:17:21;;;;;;;9.98;5.93;;;;;;;15.79;90.10;96444.81;4946257;28;20083;-58
2023/04/27 05:19:49;;;;;;;8.18;5.70;;;;;;;15.42;96.88;96451.69;4958030;28;20626;-57
2023/04/27 05:22:17;;;;;;;12.82;5.90;;;;;;;15.58;94.04;96454.22;4949187;28;20777;-59
2023/04/27 05:24:45;;;;;;;9.55;5.60;;;;;;;16.00;89.92;96446.81;4950404;28;20111;-56
2023/04/27 05:27:15;;;;;;;11.15;6.20;;;;;;;15.90;87.72;96447.91;4950579;28;20079;-58
2023/04/27 05:29:44;;;;;;;11.52;6.07;;;;;;;15.81;88.20;96440.97;4945769;28;20082;-60
2023/04/27 05:32:12;;;;;;;10.48;6.07;;;;;;;15.68;91.15;96450.53;4951332;28;20083;-58
2023/04/27 05:34:42;;;;;;;9.20;6.13;;;;;;;15.07;95.77;96448.53;4942637;28;20071;-60
2023/04/27 05:37:12;;;;;;;14.60;6.40;;;;;;;15.56;94.73;96445.63;4945100;28;20526;-59
2023/04/27 05:39:41;;;;;;;12.33;6.83;;;;;;;15.44;90.01;96449.66;4946937;28;20079;-59
2023/04/27 05:42:09;;;;;;;9.13;5.85;;;;;;;15.71;94.07;96448.38;4952229;28;20082;-56
2023/04/27 05:44:39;;;;;;;11.85;6.10;;;;;;;15.90;91.24;96449.72;4952601;28;20122;-54
2023/04/27 05:47:07;;;;;;;13.85;6.50;;;;;;;16.29;86.14;96459.38;4954273;28;20085;-61
2023/04/27 05:49:35;;;;;;;10.20;6.45;;;;;;;16.32;83.18;96453.69;4955033;28;20079;-59
2023/04/27 05:52:04;;;;;;;10.55;6.03;;;;;;;16.70;81.88;96456.31;4947589;28;20075;-59
2023/04/27 05:54:32;;;;;;;15.20;6.00;;;;;;;16.74;80.26;96470.91;4948494;28;20087;-57
2023/04/27 05:57:01;;;;;;;12.63;5.68;;;;;;;16.40;86.32;96471.41;4945471;28;20075;-56
2023/04/27 05:59:29;;;;;;;10.02;6.20;;;;;;;16.61;86.51;96468.88;4944936;28;20763;-59
2023/04/27 06:01:59;;;;;;;9.93;6.50;;;;;;;16.68;84.45;96469.78;4948367;28;20059;-59
2023/04/27 06:04:28;;;;;;;11.93;5.90;;;;;;;17.48;75.62;96461.06;4946333;28;20090;-58
2023/04/27 06:06:56;;;;;;;11.68;6.07;;;;;;;17.51;72.21;96465.16;4948104;28;20082;-60
2023/04/27 06:09:25;;;;;;;13.25;6.25;;;;;;;17.22;77.33;96466.88;4948156;28;20542;-59
2023/04/27 06:11:53;;;;;;;10.52;6.15;;;;;;;17.98;70.86;96459.34;4945208;28;20090;-57
2023/04/27 06:14:21;;;;;;;11.30;6.20;;;;;;;18.00;69.51;96459.16;4954867;28;20078;-60
2023/04/27 06:16:50;;;;;;;12.30;5.65;;;;;;;17.34;67.10;96459.22;4951220;28;20070;-59
2023/04/27 06:19:20;;;;;;;12.00;6.05;;;;;;;16.86;72.05;96461.47;4959354;28;20081;-58
2023/04/27 06:21:51;;;;;;;12.05;6.40;;;;;;;18.33;66.64;96451.41;4955177;28;20075;-58
2023/04/27 06:24:20;;;;;;;9.73;6.20;;;;;;;18.10;66.75;96449.00;4955087;28;20280;-57
2023/04/27 06:26:49;;;;;;;12.68;6.30;;;;;;;19.03;61.73;96440.78;4949116;28;20094;-61
2023/04/27 06:29:17;;;;;;;10.98;5.57;;;;;;;18.40;60.97;96454.97;4948291;28;20130;-60
2023/04/27 06:31:46;;;;;;;9.18;6.05;;;;;;;18.08;63.49;96459.00;4948163;28;20109;-60
2023/04/27 06:34:14;;;;;;;11.95;5.50;;;;;;;18.32;61.43;96460.44;4949930;28;20094;-57
2023/04/27 06:36:44;;;;;;;9.20;4.93;;;;;;;19.06;54.77;96459.09;4944769;28;20087;-59
2023/04/27 06:39:12;;;;;;;10.13;5.40;;;;;;;19.30;52.27;96463.94;4942174;28;20083;-59
2023/04/27 06:41:41;;;;;;;9.93;5.30;;;;;;;19.56;51.78;96467.78;4954811;28;20106;-56
2023/04/27 06:44:09;;;;;;;9.68;5.78;;;;;;;19.82;49.58;96459.84;4948060;28;20134;-59
2023/04/27 06:46:38;;;;;;;8.50;5.03;;;;;;;19.95;49.51;96468.94;4949687;28;20745;-60
2023/04/27 06:49:06;;;;;;;10.23;5.43;;;;;;;18.67;50.53;96473.84;4949094;28;20090;-60
2023/04/27 06:51:34;;;;;;;9.32;5.60;;;;;;;18.02;54.63;96475.78;4945005;28;20098;-56
2023/04/27 06:54:04;;;;;;;13.43;6.15;;;;;;;18.10;57.67;96475.69;4943624;28;20074;-60
2023/04/27 06:56:33;;;;;;;9.38;5.43;;;;;;;19.21;53.47;96471.34;4948146;28;20087;-58
2023/04/27 06:59:01;;;;;;;13.07;5.72;;;;;;;19.09;53.16;96470.22;4941506;28;20105;-61
2023/04/27 07:01:29;;;;;;;8.80;5.07;;;;;;;18.58;51.10;96480.34;4950426;28;20119;-58
2023/04/27 07:03:57;;;;;;;9.52;5.45;;;;;;;19.09;50.78;96477.44;4950496;28;20542;-61
2023/04/27 07:06:27;;;;;;;7.78;4.90;;;;;;;20.16;47.06;96468.75;4943120;28;20075;-59
2023/04/27 07:08:56;;;;;;;6.63;4.45;;;;;;;18.87;51.15;96479.38;4948731;28;20088;-61
2023/04/27 07:11:25;;;;;;;8.98;5.20;;;;;;;19.97;47.93;96472.22;4943326;28;20075;-61
2023/04/27 07:13:54;;;;;;;9.37;5.17;;;;;;;20.77;46.18;96473.09;4947804;28;20531;-57
2023/04/27 07:16:22;;;;;;;8.75;5.07;;;;;;;20.95;44.60;96470.56;4950690;28;20499;-59
2023/04/27 07:18:50;;;;;;;11.55;5.80;;;;;;;19.84;47.06;96468.50;4951742;28;20082;-59
2023/04/27 07:21:18;;;;;;;10.52;4.97;;;;;;;19.76;48.24;96476.72;4950895;28;20483;-60
2023/04/27 07:23:46;;;;;;;9.25;5.03;;;;;;;21.06;45.65;96471.81;4955080;28;20486;-58
2023/04/27 07:26:15;;;;;;;10.07;5.13;;;;;;;20.54;46.94;96474.38;4952370;28;20074;-60
2023/04/27 07:28:46;;;;;;;7.85;5.00;;;;;;;21.25;43.65;96462.06;4950150;28;20510;-59
2023/04/27 07:31:14;;;;;;;8.07;5.30;;;;;;;21.68;42.90;96459.63;4951349;28;20082;-60
2023/04/27 07:33:43;;;;;;;9.57;5.35;;;;;;;20.43;44.09;96472.25;4945393;28;20090;-61
2023/04/27 07:36:11;;;;;;;9.82;5.28;;;;;;;21.73;41.56;96465.16;4946978;28;20086;-58
2023/04/27 07:38:39;;;;;;;9.85;5.07;;;;;;;21.79;41.16;96474.25;4949579;28;20086;-59
2023/04/27 07:41:07;;;;;;;10.07;5.10;;;;;;;22.40;41.00;96472.81;4947576;28;20086;-58
2023/04/27 07:43:36;;;;;;;13.48;5.63;;;;;;;22.14;41.52;96477.31;4949900;28;20087;-59
2023/04/27 07:46:06;;;;;;;9.90;4.55;;;;;;;21.55;42.40;96475.78;4946079;28;20340;-58
2023/04/27 07:48:34;;;;;;;7.65;5.10;;;;;;;21.00;43.81;96481.50;4949909;28;20657;-60
2023/04/27 07:51:03;;;;;;;11.30;4.82;;;;;;;21.69;41.39;96473.88;4952442;28;20087;-61
2023/04/27 07:53:31;;;;;;;8.38;4.65;;;;;;;22.07;40.53;96473.84;4955076;28;20086;-62
2023/04/27 07:55:59;;;;;;;8.45;4.90;;;;;;;22.32;39.77;96475.78;4953325;28;20491;-61
2023/04/27 07:58:28;;;;;;;6.47;4.50;;;;;;;21.15;41.31;96480.44;4950909;28;20091;-61
2023/04/27 08:00:56;;;;;;;11.40;4.35;;;;;;;20.79;41.29;96484.44;4946797;28;20109;-60
2023/04/27 08:03:25;;;;;;;7.15;4.13;;;;;;;20.91;39.41;96476.59;4947245;28;20095;-60
2023/04/27 08:05:54;;;;;;;6.28;4.20;;;;;;;21.01;40.89;96479.66;4947180;28;20464;-59
2023/04/27 08:08:23;;;;;;;8.98;4.43;;;;;;;21.55;40.36;96478.47;4951629;28;20086;-61
2023/04/27 08:10:51;;;;;;;9.18;4.35;;;;;;;20.77;39.96;96481.97;4950925;28;20086;-61
2023/04/27 08:13:20;;;;;;;9.25;4.40;;;;;;;22.26;38.16;96478.31;4949134;28;20082;-60
2023/04/27 08:15:50;;;;;;;6.15;4.30;;;;;;;21.59;39.17;96477.00;4948161;28;20112;-60
2023/04/27 08:18:18;;;;;;;6.93;4.05;;;;;;;21.57;39.71;96487.13;4950860;28;20091;-61
2023/04/27 08:20:48;;;;;;;9.07;4.10;;;;;;;21.39;39.56;96484.31;4950383;28;20094;-60
2023/04/27 08:23:16;;;;;;;6.73;3.93;;;;;;;21.54;38.98;96484.88;4944543;28;20083;-59
2023/04/27 08:25:44;;;;;;;9.50;4.43;;;;;;;22.59;37.00;96489.84;4943433;28;20513;-60
2023/04/27 08:28:13;;;;;;;6.15;3.97;;;;;;;23.37;34.79;96487.44;4953936;28;20547;-60
2023/04/27 08:30:42;;;;;;;7.22;4.10;;;;;;;21.99;36.22;96493.75;4949759;28;20086;-61
2023/04/27 08:33:11;;;;;;;6.28;3.55;;;;;;;21.46;35.58;96485.94;4941501;28;20590;-60
2023/04/27 08:35:39;;;;;;;8.27;4.18;;;;;;;21.30;36.58;96489.91;4947446;28;20101;-58
2023/04/27 08:38:09;;;;;;;7.78;4.40;;;;;;;21.90;35.92;96486.97;4949916;28;20082;-60
2023/04/27 08:40:42;;;;;;;7.50;3.90;;;;;;;23.33;34.75;96475.47;4948592;28;20082;-60
2023/04/27 08:43:10;;;;;;;8.68;4.00;;;;;;;22.64;35.36;96487.28;4953353;28;20896;-61
2023/04/27 08:45:39;;;;;;;7.70;3.90;;;;;;;23.10;34.77;96476.13;4954517;28;20089;-60
2023/04/27 08:48:08;;;;;;;6.88;3.80;;;;;;;22.63;35.75;96481.09;4946267;28;20050;-61
2023/04/27 08:50:38;;;;;;;6.88;4.03;;;;;;;22.78;35.51;96483.47;4948264;28;20562;-60
2023/04/27 08:53:18;;;;;;;6.78;3.90;;;;;;;24.18;34.62;96474.56;4946666;28;20078;-60
2023/04/27 08:55:46;;;;;;;6.72;4.70;;;;;;;22.64;35.66;96482.78;4953148;28;20559;-61
2023/04/27 08:58:15;;;;;;;8.82;4.03;;;;;;;22.76;35.09;96488.22;4952413;28;20074;-61
2023/04/27 09:00:44;;;;;;;8.10;3.80;;;;;;;23.50;34.10;96478.34;4953975;28;20090;-62
2023/04/27 09:03:21;;;;;;;7.65;4.05;;;;;;;24.01;34.02;96473.59;4955475;28;20086;-60
2023/04/27 09:05:50;;;;;;;7.18;4.53;;;;;;;22.16;35.41;96487.88;4948885;28;20089;-59
2023/04/27 09:08:43;;;;;;;6.68;4.25;;;;;;;22.25;35.65;96476.66;4961780;28;20062;-57
2023/04/27 09:11:11;;;;;;;6.60;3.70;;;;;;;24.34;33.29;96478.50;4953450;28;20083;-61
2023/04/27 09:13:43;;;;;;;9.07;4.28;;;;;;;23.65;33.65;96475.28;4952861;28;20051;-61
2023/04/27 09:16:13;;;;;;;10.13;5.60;;;;;;;24.52;33.87;96472.22;4952282;28;20086;-59
2023/04/27 09:18:42;;;;;;;7.70;4.10;;;;;;;25.15;33.06;96471.53;4950684;28;20090;-59
2023/04/27 09:21:11;;;;;;;10.93;4.80;;;;;;;21.71;36.01;96477.16;4957611;28;20082;-62
2023/04/27 09:23:40;;;;;;;7.05;4.28;;;;;;;22.37;34.75;96478.66;4957150;28;20506;-62
2023/04/27 09:26:20;;;;;;;6.78;4.18;;;;;;;23.58;34.45;96467.31;4950414;28;20082;-60
2023/04/27 09:28:50;;;;;;;8.85;4.30;;;;;;;23.00;34.17;96472.31;4953162;28;20086;-60
2023/04/27 09:31:19;;;;;;;6.72;4.55;;;;;;;22.80;34.96;96465.22;4956321;28;20090;-61
2023/04/27 09:33:54;;;;;;;9.07;4.75;;;;;;;24.00;34.48;96450.41;4946623;28;20121;-60
2023/04/27 09:36:23;;;;;;;8.93;4.53;;;;;;;23.32;34.36;96454.97;4957077;28;20501;-59
2023/04/27 09:38:52;;;;;;;6.82;4.32;;;;;;;24.28;33.05;96452.47;4951513;28;20094;-59
2023/04/27 09:41:22;;;;;;;9.15;4.20;;;;;;;22.19;34.99;96463.25;4956172;28;20715;-59
2023/04/27 09:43:50;;;;;;;6.07;4.07;;;;;;;22.67;35.32;96460.78;4951105;28;20083;-59
2023/04/27 09:46:19;;;;;;;6.25;4.25;;;;;;;23.72;34.63;96446.44;4958065;28;20098;-58
2023/04/27 09:48:49;;;;;;;9.70;4.45;;;;;;;22.65;34.22;96451.31;4952722;28;20490;-60
2023/04/27 09:51:17;;;;;;;7.82;3.95;;;;;;;23.00;35.25;96450.81;4952829;28;20091;-60
2023/04/27 09:53:50;;;;;;;7.13;4.80;;;;;;;22.07;35.51;96447.00;4947365;28;20080;-61
2023/04/27 09:56:28;;;;;;;10.27;4.65;;;;;;;23.14;35.25;96433.47;4953141;28;20079;-58
2023/04/27 09:59:10;;;;;;;7.90;4.10;;;;;;;22.73;35.30;96443.78;4951542;28;20507;-57
2023/04/27 10:01:42;;;;;;;7.75;4.65;;;;;;;22.47;36.62;96442.19;4953228;28;20697;-60
2023/04/27 10:04:27;;;;;;;8.63;4.38;;;;;;;23.06;34.15;96436.47;4947951;28;20554;-58
2023/04/27 10:07:00;;;;;;;8.02;4.90;;;;;;;23.07;34.29;96438.09;4953887;28;20091;-60
2023/04/27 10:09:35;;;;;;;8.20;4.03;;;;;;;22.32;35.88;96440.84;4949637;28;20087;-61
2023/04/27 10:12:18;;;;;;;8.45;5.28;;;;;;;22.38;36.40;96434.59;4949305;28;20091;-58
2023/04/27 10:14:51;;;;;;;10.95;5.35;;;;;;;21.86;35.76;96436.63;4954633;28;20094;-59
2023/04/27 10:17:23;;;;;;;11.63;6.15;;;;;;;21.79;37.38;96433.97;4946996;28;20091;-56
2023/04/27 10:19:56;;;;;;;9.35;4.88;;;;;;;23.07;36.27;96433.53;4947972;28;20497;-60
2023/04/27 10:22:38;;;;;;;9.25;5.20;;;;;;;21.76;38.32;96434.41;4948992;28;20083;-59
2023/04/27 10:25:15;;;;;;;12.68;5.88;;;;;;;22.85;36.15;96432.28;4946217;28;20094;-59
2023/04/27 10:27:49;;;;;;;11.70;5.57;;;;;;;21.61;37.29;96433.84;4951353;28;20098;-61
2023/04/27 10:30:18;;;;;;;10.75;5.05;;;;;;;22.32;36.49;96425.53;4950914;28;20079;-58
2023/04/27 10:32:54;;;;;;;8.70;5.80;;;;;;;22.59;36.34;96422.63;4956521;28;20118;-60
2023/04/27 10:35:32;;;;;;;11.82;5.22;;;;;;;23.91;34.36;96425.66;4946834;28;20114;-60
2023/04/27 10:38:08;;;;;;;11.65;5.47;;;;;;;24.59;34.08;96419.00;4944605;28;20079;-61
2023/04/27 10:40:37;;;;;;;8.88;5.70;;;;;;;23.81;34.91;96422.69;4948732;28;20094;-57
2023/04/27 10:43:11;;;;;;;9.45;5.10;;;;;;;24.43;33.50;96423.19;4950371;28;20094;-58
2023/04/27 10:45:39;;;;;;;9.88;5.30;;;;;;;24.61;34.07;96423.13;4951288;28;20099;-60
2023/04/27 10:48:08;;;;;;;11.90;6.70;;;;;;;25.46;32.32;96412.78;4948902;28;20083;-58
2023/04/27 10:50:36;;;;;;;9.85;7.07;;;;;;;24.95;33.21;96427.88;4947534;28;20079;-59
2023/04/27 10:53:06;;;;;;;9.52;6.18;;;;;;;23.29;34.61;96417.75;4946759;28;20113;-60
2023/04/27 10:55:36;;;;;;;11.68;5.70;;;;;;;24.90;32.60;96417.00;4954552;28;20074;-58
2023/04/27 10:58:05;;;;;;;12.30;6.40;;;;;;;24.07;34.88;96408.03;4948336;28;20079;-58
2023/04/27 11:00:37;;;;;;;9.85;4.93;;;;;;;23.85;34.29;96413.94;4947011;28;20090;-61
2023/04/27 11:03:15;;;;;;;13.55;5.60;;;;;;;22.67;35.36;96420.47;4948269;28;20061;-61
2023/04/27 11:05:45;;;;;;;10.65;5.25;;;;;;;24.07;34.21;96416.09;4950554;28;20418;-58
2023/04/27 11:08:15;;;;;;;11.20;7.38;;;;;;;23.18;35.42;96418.50;4933566;29;20073;-61
2023/04/27 11:10:45;;;;;;;12.10;6.00;;;;;;;23.41;34.76;96410.56;4949663;28;20082;-60
2023/04/27 11:13:16;;;;;;;10.02;6.13;;;;;;;24.35;32.97;96416.25;4948415;28;20078;-59
2023/04/27 11:15:47;;;;;;;8.48;6.07;;;;;;;23.42;34.49;96414.06;4950862;28;20090;-61
2023/04/27 11:18:17;;;;;;;9.50;6.95;;;;;;;24.45;34.94;96413.03;4948529;28;20086;-61
2023/04/27 11:20:48;;;;;;;11.40;7.15;;;;;;;22.74;34.54;96423.09;4949092;28;20074;-58
2023/04/27 11:23:24;;;;;;;10.68;7.18;;;;;;;22.78;34.60;96423.47;4946008;28;20081;-60
2023/04/27 11:25:53;;;;;;;8.10;6.68;;;;;;;23.98;35.28;96412.91;4951123;28;20075;-61
2023/04/27 11:28:21;;;;;;;10.35;6.53;;;;;;;23.67;34.54;96412.13;4945084;28;20078;-60
2023/04/27 11:30:57;;;;;;;11.52;6.50;;;;;;;23.98;33.74;96420.97;4946428;28;20087;-60
2023/04/27 11:33:26;;;;;;;10.40;6.00;;;;;;;23.91;33.93;96418.38;4952708;28;20538;-61
2023/04/27 11:35:55;;;;;;;10.30;6.03;;;;;;;23.64;34.68;96414.41;4953024;28;20071;-60
2023/04/27 11:38:25;;;;;;;10.43;6.40;;;;;;;24.52;33.64;96410.22;4952896;28;20317;-61
2023/04/27 11:41:00;;;;;;;10.52;6.20;;;;;;;24.19;33.29;96422.34;4952741;28;20117;-61